Time;durP1;ratioP1;P1;durP2;ratioP2;P2;SDS_P1;SDS_P2;PMS_P1;PMS_P2;Temp;Humidity;BMP_temperature;BMP_pressure;BME280_temperature;BME280_humidity;BME280_pressure;Samples;Min_cycle;Max_cycle;Signal;HPM_P1;HPM_P2
2022/03/09 00:02:07;;;;;;;10.40;9.40;;;;;;;;;;5069912;28;24960;-51
2022/03/09 00:04:32;;;;;;;10.75;9.65;;;;;;;;;;5073625;28;24444;-51
2022/03/09 00:06:57;;;;;;;9.70;8.70;;;;;;;;;;5069399;28;24429;-51
2022/03/09 00:09:22;;;;;;;10.33;9.10;;;;;;;;;;5067682;28;25024;-51
2022/03/09 00:11:47;;;;;;;10.15;8.85;;;;;;;;;;5068833;28;24461;-51
2022/03/09 00:14:13;;;;;;;9.80;8.80;;;;;;;;;;5066858;28;24415;-51
2022/03/09 00:16:38;;;;;;;10.90;8.87;;;;;;;;;;5067427;28;24960;-51
2022/03/09 00:19:03;;;;;;;10.02;9.02;;;;;;;;;;5067504;28;24418;-51
2022/03/09 00:21:28;;;;;;;11.40;9.20;;;;;;;;;;5067487;28;24530;-50
2022/03/09 00:23:53;;;;;;;10.53;9.20;;;;;;;;;;5066601;28;25043;-50
2022/03/09 00:26:18;;;;;;;9.40;8.50;;;;;;;;;;5076920;28;24422;-50
2022/03/09 00:28:43;;;;;;;10.57;9.45;;;;;;;;;;5068067;28;24418;-51
2022/03/09 00:31:09;;;;;;;11.00;9.80;;;;;;;;;;5067394;28;24483;-51
2022/03/09 00:33:34;;;;;;;10.87;9.20;;;;;;;;;;5066995;28;24418;-51
2022/03/09 00:35:59;;;;;;;10.87;9.43;;;;;;;;;;5066485;28;24494;-50
2022/03/09 00:38:24;;;;;;;9.50;8.60;;;;;;;;;;5070511;28;24443;-50
2022/03/09 00:40:50;;;;;;;9.93;8.93;;;;;;;;;;5067362;28;24936;-51
2022/03/09 00:43:15;;;;;;;9.80;8.80;;;;;;;;;;5066831;28;24415;-52
2022/03/09 00:45:40;;;;;;;10.35;9.25;;;;;;;;;;5066795;28;24410;-51
2022/03/09 00:48:06;;;;;;;9.07;8.17;;;;;;;;;;5066775;28;24968;-51
2022/03/09 00:50:31;;;;;;;10.23;8.32;;;;;;;;;;5072778;28;24413;-51
2022/03/09 00:52:56;;;;;;;9.25;8.10;;;;;;;;;;5077458;28;24505;-52
2022/03/09 00:55:21;;;;;;;9.20;8.30;;;;;;;;;;5066475;28;24511;-51
2022/03/09 00:57:46;;;;;;;9.27;8.37;;;;;;;;;;5066875;28;24468;-51
2022/03/09 01:00:12;;;;;;;8.00;7.20;;;;;;;;;;5067206;28;24483;-51
2022/03/09 01:02:43;;;;;;;8.73;7.93;;;;;;;;;;5073536;28;24963;-52
2022/03/09 01:05:09;;;;;;;9.98;7.80;;;;;;;;;;5066385;28;24563;-51
2022/03/09 01:07:34;;;;;;;8.30;7.50;;;;;;;;;;5066689;28;25027;-51
2022/03/09 01:09:59;;;;;;;8.87;7.70;;;;;;;;;;5068047;28;24411;-51
2022/03/09 01:12:24;;;;;;;9.10;8.20;;;;;;;;;;5066565;28;24437;-52
2022/03/09 01:14:49;;;;;;;9.05;8.10;;;;;;;;;;5075616;28;24403;-51
2022/03/09 01:17:14;;;;;;;10.45;8.80;;;;;;;;;;5066763;28;24460;-51
2022/03/09 01:19:40;;;;;;;9.00;8.10;;;;;;;;;;5066165;28;24430;-51
2022/03/09 01:22:05;;;;;;;9.20;7.80;;;;;;;;;;5066706;28;24403;-51
2022/03/09 01:24:30;;;;;;;9.00;8.00;;;;;;;;;;5070930;28;24444;-50
2022/03/09 01:26:55;;;;;;;9.50;8.30;;;;;;;;;;5070627;28;24442;-50
2022/03/09 01:29:20;;;;;;;8.27;7.47;;;;;;;;;;5066520;28;24773;-51
2022/03/09 01:31:45;;;;;;;8.25;7.45;;;;;;;;;;5069094;28;24453;-51
2022/03/09 01:34:10;;;;;;;8.60;7.80;;;;;;;;;;5065584;28;24403;-51
2022/03/09 01:36:37;;;;;;;7.87;7.13;;;;;;;;;;5070429;28;24545;-51
2022/03/09 01:39:02;;;;;;;8.23;7.43;;;;;;;;;;5068334;28;24983;-52
2022/03/09 01:41:27;;;;;;;8.18;6.88;;;;;;;;;;5049592;28;24478;-50
2022/03/09 01:44:08;;;;;;;8.60;7.70;;;;;;;;;;5075369;28;24483;-51
2022/03/09 01:46:34;;;;;;;8.75;7.85;;;;;;;;;;5052115;28;24526;-52
2022/03/09 01:48:59;;;;;;;7.90;7.20;;;;;;;;;;5067483;28;24832;-52
2022/03/09 01:51:24;;;;;;;8.52;7.72;;;;;;;;;;5068037;28;24411;-51
2022/03/09 01:53:49;;;;;;;8.20;7.27;;;;;;;;;;5078235;28;24423;-50
2022/03/09 01:56:15;;;;;;;8.70;7.80;;;;;;;;;;5067887;28;24518;-50
2022/03/09 01:58:40;;;;;;;9.03;7.60;;;;;;;;;;5066461;28;24511;-51
2022/03/09 02:01:05;;;;;;;7.80;7.00;;;;;;;;;;5065973;28;24457;-51
2022/03/09 02:03:30;;;;;;;8.13;7.10;;;;;;;;;;5066417;28;24502;-52
2022/03/09 02:05:55;;;;;;;8.23;7.25;;;;;;;;;;5071062;28;24483;-50
2022/03/09 02:11:04;;;;;;;8.52;7.65;;;;;;;;;;5063976;28;24966;-51
2022/03/09 02:13:29;;;;;;;7.90;6.93;;;;;;;;;;5066194;28;24415;-52
2022/03/09 02:15:55;;;;;;;7.72;6.90;;;;;;;;;;5062982;28;24472;-51
2022/03/09 02:18:20;;;;;;;8.70;7.80;;;;;;;;;;5071266;28;24449;-51
2022/03/09 02:20:48;;;;;;;8.30;7.40;;;;;;;;;;5061528;28;25027;-51
2022/03/09 02:23:13;;;;;;;8.13;6.97;;;;;;;;;;5065899;28;25085;-51
2022/03/09 02:25:38;;;;;;;7.93;7.10;;;;;;;;;;5062549;28;24438;-52
2022/03/09 02:28:03;;;;;;;8.07;7.33;;;;;;;;;;5079028;28;24460;-51
2022/03/09 02:30:28;;;;;;;9.05;7.40;;;;;;;;;;5065817;28;24441;-51
2022/03/09 02:32:53;;;;;;;8.15;7.35;;;;;;;;;;5065383;28;24836;-51
2022/03/09 02:35:19;;;;;;;7.90;7.10;;;;;;;;;;5062773;28;24488;-51
2022/03/09 02:37:44;;;;;;;8.10;7.17;;;;;;;;;;5062676;28;24407;-52
2022/03/09 02:40:11;;;;;;;8.30;6.80;;;;;;;;;;5063137;28;25210;-52
2022/03/09 02:42:36;;;;;;;10.25;7.63;;;;;;;;;;5064951;28;24441;-52
2022/03/09 02:45:02;;;;;;;7.50;6.80;;;;;;;;;;5059856;28;24537;-51
2022/03/09 02:47:27;;;;;;;8.05;6.60;;;;;;;;;;5069302;28;24423;-52
2022/03/09 02:49:53;;;;;;;9.37;7.10;;;;;;;;;;5060401;28;24437;-51
2022/03/09 02:52:18;;;;;;;8.88;7.18;;;;;;;;;;5075947;28;24916;-51
2022/03/09 02:54:43;;;;;;;8.10;7.00;;;;;;;;;;5065580;28;25070;-51
2022/03/09 02:57:08;;;;;;;7.50;6.70;;;;;;;;;;5068726;28;24415;-51
2022/03/09 02:59:33;;;;;;;7.80;7.00;;;;;;;;;;5069137;28;24422;-52
2022/03/09 03:01:58;;;;;;;7.70;6.97;;;;;;;;;;5068609;28;25222;-50
2022/03/09 03:04:24;;;;;;;7.60;6.90;;;;;;;;;;5068499;28;24506;-50
2022/03/09 03:06:49;;;;;;;7.38;6.68;;;;;;;;;;5073393;28;24797;-50
2022/03/09 03:09:14;;;;;;;7.77;6.97;;;;;;;;;;5068853;28;24529;-51
2022/03/09 03:11:39;;;;;;;8.97;7.27;;;;;;;;;;5069138;28;24960;-50
2022/03/09 03:14:04;;;;;;;7.85;6.88;;;;;;;;;;5068489;28;24979;-50
2022/03/09 03:16:29;;;;;;;9.43;7.70;;;;;;;;;;5066984;28;24403;-51
2022/03/09 03:18:55;;;;;;;8.30;7.50;;;;;;;;;;5068843;28;24415;-50
2022/03/09 03:21:20;;;;;;;8.35;7.30;;;;;;;;;;5069150;28;24957;-50
2022/03/09 03:23:45;;;;;;;8.43;7.53;;;;;;;;;;5068564;28;24492;-51
2022/03/09 03:26:10;;;;;;;7.75;6.95;;;;;;;;;;5070762;28;24425;-50
2022/03/09 03:28:35;;;;;;;7.47;6.47;;;;;;;;;;5074518;28;24434;-51
2022/03/09 03:31:00;;;;;;;9.43;7.03;;;;;;;;;;5068130;28;24402;-50
2022/03/09 03:33:25;;;;;;;7.50;6.60;;;;;;;;;;5068745;28;24414;-50
2022/03/09 03:35:51;;;;;;;8.48;7.00;;;;;;;;;;5068408;28;24426;-49
2022/03/09 03:38:16;;;;;;;8.10;7.30;;;;;;;;;;5076693;28;24419;-51
2022/03/09 03:40:42;;;;;;;10.77;8.37;;;;;;;;;;5068368;28;24411;-50
2022/03/09 03:43:07;;;;;;;10.70;8.27;;;;;;;;;;5068106;28;24496;-50
2022/03/09 03:45:32;;;;;;;8.75;7.80;;;;;;;;;;5076589;28;25140;-50
2022/03/09 03:47:57;;;;;;;9.17;7.20;;;;;;;;;;5067890;28;24414;-50
2022/03/09 03:50:23;;;;;;;10.20;7.70;;;;;;;;;;5068975;28;24457;-52
2022/03/09 03:52:48;;;;;;;7.80;7.00;;;;;;;;;;5068548;28;24764;-50
2022/03/09 03:55:14;;;;;;;8.80;7.90;;;;;;;;;;5067731;28;24834;-51
2022/03/09 03:57:39;;;;;;;8.47;7.57;;;;;;;;;;5079054;28;24406;-50
2022/03/09 04:00:07;;;;;;;7.80;7.00;;;;;;;;;;5068159;28;24498;-51
2022/03/09 04:02:32;;;;;;;7.28;6.57;;;;;;;;;;5067377;28;25009;-50
2022/03/09 04:04:57;;;;;;;8.13;6.90;;;;;;;;;;5068322;28;24461;-50
2022/03/09 04:07:22;;;;;;;8.03;6.90;;;;;;;;;;5067259;28;24868;-51
2022/03/09 04:09:48;;;;;;;8.63;6.97;;;;;;;;;;5068335;28;24422;-51
2022/03/09 04:12:13;;;;;;;7.63;6.83;;;;;;;;;;5067892;28;24411;-51
2022/03/09 04:14:38;;;;;;;7.90;7.10;;;;;;;;;;5071026;28;24444;-51
2022/03/09 04:17:03;;;;;;;7.30;6.47;;;;;;;;;;5067661;28;25058;-51
2022/03/09 04:19:28;;;;;;;7.90;7.10;;;;;;;;;;5067702;28;24418;-51
2022/03/09 04:21:54;;;;;;;7.60;6.63;;;;;;;;;;5067756;28;24789;-50
2022/03/09 04:24:19;;;;;;;8.50;6.50;;;;;;;;;;5067349;28;24410;-50
2022/03/09 04:26:44;;;;;;;7.80;7.10;;;;;;;;;;5067520;28;24431;-51
2022/03/09 04:29:10;;;;;;;8.98;6.93;;;;;;;;;;5067341;28;24508;-51
2022/03/09 04:31:35;;;;;;;7.63;6.90;;;;;;;;;;5067171;28;24480;-51
2022/03/09 04:34:00;;;;;;;9.70;7.53;;;;;;;;;;5072320;28;24406;-51
2022/03/09 04:36:26;;;;;;;8.33;7.03;;;;;;;;;;5065643;28;24418;-51
2022/03/09 04:38:51;;;;;;;9.63;7.70;;;;;;;;;;5071566;28;24421;-52
2022/03/09 04:41:16;;;;;;;8.60;7.60;;;;;;;;;;5066993;28;24449;-52
2022/03/09 04:43:41;;;;;;;9.07;7.50;;;;;;;;;;5068231;28;24450;-51
2022/03/09 04:46:06;;;;;;;7.50;6.70;;;;;;;;;;5072579;28;24488;-52
2022/03/09 04:48:31;;;;;;;7.43;6.70;;;;;;;;;;5069253;28;24856;-51
2022/03/09 04:50:56;;;;;;;7.30;6.60;;;;;;;;;;5080053;28;24709;-52
2022/03/09 04:53:22;;;;;;;7.70;6.90;;;;;;;;;;5081502;28;25409;-52
2022/03/09 04:55:47;;;;;;;8.07;6.63;;;;;;;;;;5066301;28;24411;-52
2022/03/09 04:58:12;;;;;;;9.32;7.10;;;;;;;;;;5054794;28;24477;-51
2022/03/09 05:00:37;;;;;;;8.03;6.93;;;;;;;;;;5073494;28;24939;-51
2022/03/09 05:03:02;;;;;;;7.80;7.00;;;;;;;;;;5059579;28;24472;-51
2022/03/09 05:05:27;;;;;;;8.80;7.70;;;;;;;;;;5064997;28;24492;-51
2022/03/09 05:07:52;;;;;;;9.83;7.60;;;;;;;;;;5071425;28;24817;-51
2022/03/09 05:10:18;;;;;;;8.38;7.57;;;;;;;;;;5065633;28;24419;-51
2022/03/09 05:12:43;;;;;;;9.18;8.00;;;;;;;;;;5066185;28;24505;-51
2022/03/09 05:15:08;;;;;;;8.57;7.50;;;;;;;;;;5066012;28;24964;-51
2022/03/09 05:17:39;;;;;;;8.68;7.30;;;;;;;;;;5065144;28;24782;-51
2022/03/09 05:20:04;;;;;;;11.52;8.00;;;;;;;;;;5067135;28;24452;-51
2022/03/09 05:22:29;;;;;;;10.80;7.50;;;;;;;;;;5065832;28;24419;-51
2022/03/09 05:24:54;;;;;;;10.47;7.83;;;;;;;;;;5066706;28;24433;-52
2022/03/09 05:27:20;;;;;;;9.32;7.72;;;;;;;;;;5066580;28;24792;-51
2022/03/09 05:29:45;;;;;;;11.93;7.67;;;;;;;;;;5066084;28;24422;-52
2022/03/09 05:32:10;;;;;;;8.73;7.43;;;;;;;;;;5066116;28;24421;-51
2022/03/09 05:34:35;;;;;;;8.40;7.43;;;;;;;;;;5062782;28;24418;-52
2022/03/09 05:37:00;;;;;;;9.17;7.13;;;;;;;;;;5066504;28;24425;-52
2022/03/09 05:39:25;;;;;;;8.70;7.43;;;;;;;;;;5058360;28;24419;-52
2022/03/09 05:41:50;;;;;;;8.90;8.00;;;;;;;;;;5059685;28;25161;-51
2022/03/09 05:44:16;;;;;;;10.13;8.45;;;;;;;;;;5061771;28;24952;-51
2022/03/09 05:46:42;;;;;;;9.80;8.23;;;;;;;;;;5067109;28;24427;-52
2022/03/09 05:49:07;;;;;;;10.27;8.50;;;;;;;;;;5078139;28;24475;-51
2022/03/09 05:51:33;;;;;;;11.80;8.98;;;;;;;;;;5062804;28;24592;-51
2022/03/09 05:53:58;;;;;;;10.50;8.40;;;;;;;;;;5063269;28;24418;-52
2022/03/09 05:56:23;;;;;;;10.40;8.30;;;;;;;;;;5063310;28;24452;-52
2022/03/09 05:58:48;;;;;;;9.40;8.20;;;;;;;;;;5063651;28;24491;-51
2022/03/09 06:01:14;;;;;;;10.82;7.53;;;;;;;;;;5065941;28;24980;-51
2022/03/09 06:03:39;;;;;;;8.57;7.20;;;;;;;;;;5072346;28;24942;-52
2022/03/09 06:06:04;;;;;;;9.30;7.75;;;;;;;;;;5060103;28;24426;-51
2022/03/09 06:08:29;;;;;;;8.90;7.73;;;;;;;;;;5071987;28;24487;-52
2022/03/09 06:10:55;;;;;;;9.18;7.90;;;;;;;;;;5071605;28;24429;-51
2022/03/09 06:13:20;;;;;;;9.52;8.02;;;;;;;;;;5073473;28;24425;-51
2022/03/09 06:15:45;;;;;;;9.65;8.32;;;;;;;;;;5065140;28;24418;-51
2022/03/09 06:18:11;;;;;;;9.17;8.20;;;;;;;;;;5067486;28;24515;-52
2022/03/09 06:20:36;;;;;;;12.10;8.80;;;;;;;;;;5071494;28;24412;-51
2022/03/09 06:23:03;;;;;;;11.27;8.23;;;;;;;;;;5071992;28;24569;-50
2022/03/09 06:25:28;;;;;;;10.52;8.90;;;;;;;;;;5073387;28;24415;-51
2022/03/09 06:27:54;;;;;;;10.83;8.97;;;;;;;;;;5073566;28;24420;-51
2022/03/09 06:30:19;;;;;;;9.70;8.70;;;;;;;;;;5072344;28;24413;-52
2022/03/09 06:32:46;;;;;;;9.90;8.60;;;;;;;;;;5068590;28;24757;-51
2022/03/09 06:35:11;;;;;;;12.15;10.95;;;;;;;;;;5069525;28;24403;-50
2022/03/09 06:37:36;;;;;;;11.07;8.75;;;;;;;;;;5069933;28;24846;-51
2022/03/09 06:40:03;;;;;;;10.20;8.20;;;;;;;;;;5070243;28;25042;-51
2022/03/09 06:42:29;;;;;;;10.60;8.60;;;;;;;;;;5069128;28;24586;-52
2022/03/09 06:44:54;;;;;;;10.68;8.55;;;;;;;;;;5069907;28;24493;-51
2022/03/09 06:47:20;;;;;;;10.07;8.50;;;;;;;;;;5069522;28;25032;-52
2022/03/09 06:49:45;;;;;;;9.80;8.30;;;;;;;;;;5069694;28;24950;-51
2022/03/09 06:52:10;;;;;;;11.32;8.85;;;;;;;;;;5069264;28;25088;-52
2022/03/09 06:54:35;;;;;;;10.93;8.60;;;;;;;;;;5069040;28;24414;-52
2022/03/09 06:57:01;;;;;;;11.43;8.75;;;;;;;;;;5074731;28;24480;-51
2022/03/09 06:59:30;;;;;;;11.70;8.47;;;;;;;;;;5066102;28;24438;-52
2022/03/09 07:01:55;;;;;;;12.55;9.10;;;;;;;;;;5061802;28;24456;-51
2022/03/09 07:04:21;;;;;;;10.95;9.30;;;;;;;;;;5066202;28;24423;-51
2022/03/09 07:06:46;;;;;;;12.13;8.83;;;;;;;;;;5070688;28;24458;-51
2022/03/09 07:09:11;;;;;;;9.10;7.43;;;;;;;;;;5070039;28;24511;-52
2022/03/09 07:11:36;;;;;;;10.77;8.60;;;;;;;;;;5065948;28;24494;-51
2022/03/09 07:14:02;;;;;;;9.13;7.87;;;;;;;;;;5065218;28;24418;-53
2022/03/09 07:16:27;;;;;;;10.73;7.93;;;;;;;;;;5072445;28;24495;-51
2022/03/09 07:18:52;;;;;;;10.53;8.40;;;;;;;;;;5074440;28;24519;-51
2022/03/09 07:21:18;;;;;;;11.03;7.90;;;;;;;;;;5064884;28;24462;-52
2022/03/09 07:23:43;;;;;;;10.13;8.20;;;;;;;;;;5071803;28;24442;-51
2022/03/09 07:26:08;;;;;;;11.53;9.00;;;;;;;;;;5074626;28;24529;-52
2022/03/09 07:28:33;;;;;;;10.98;8.23;;;;;;;;;;5080529;28;24422;-51
2022/03/09 07:30:58;;;;;;;9.10;8.17;;;;;;;;;;5082389;28;24767;-51
2022/03/09 07:33:24;;;;;;;10.10;8.70;;;;;;;;;;5089233;28;24903;-51
2022/03/09 07:35:49;;;;;;;10.83;8.53;;;;;;;;;;5076987;28;24869;-50
2022/03/09 07:38:14;;;;;;;9.33;8.33;;;;;;;;;;5068422;28;24403;-50
2022/03/09 07:40:40;;;;;;;9.93;8.50;;;;;;;;;;5068765;28;24395;-51
2022/03/09 07:43:05;;;;;;;11.05;9.23;;;;;;;;;;5068561;28;24456;-50
2022/03/09 07:45:30;;;;;;;10.52;9.40;;;;;;;;;;5068743;28;24498;-50
2022/03/09 07:47:56;;;;;;;12.93;9.00;;;;;;;;;;5068412;28;24437;-51
2022/03/09 07:50:22;;;;;;;11.00;9.30;;;;;;;;;;5069022;28;24820;-52
2022/03/09 07:52:47;;;;;;;11.77;9.20;;;;;;;;;;5068523;28;24915;-51
2022/03/09 07:55:12;;;;;;;13.48;10.10;;;;;;;;;;5068127;28;24493;-51
2022/03/09 07:57:37;;;;;;;11.17;9.80;;;;;;;;;;5068460;28;24413;-51
2022/03/09 08:00:03;;;;;;;10.77;9.67;;;;;;;;;;5068574;28;24388;-51
2022/03/09 08:02:28;;;;;;;11.50;10.23;;;;;;;;;;5068409;28;24482;-52
2022/03/09 08:04:54;;;;;;;13.53;10.10;;;;;;;;;;5067653;28;25003;-52
2022/03/09 08:07:19;;;;;;;11.60;9.60;;;;;;;;;;5066142;28;24468;-52
2022/03/09 08:09:44;;;;;;;10.95;9.38;;;;;;;;;;5066339;28;24490;-52
2022/03/09 08:12:11;;;;;;;11.63;9.00;;;;;;;;;;5068207;28;24394;-52
2022/03/09 08:14:36;;;;;;;11.48;10.07;;;;;;;;;;5067754;28;24840;-52
2022/03/09 08:17:01;;;;;;;11.40;9.30;;;;;;;;;;5068229;28;24506;-52
2022/03/09 08:19:28;;;;;;;13.37;10.00;;;;;;;;;;5068275;28;24753;-52
2022/03/09 08:21:53;;;;;;;12.55;10.07;;;;;;;;;;5068032;28;24379;-51
2022/03/09 08:24:18;;;;;;;11.03;8.43;;;;;;;;;;5068078;28;24497;-52
2022/03/09 08:26:43;;;;;;;11.63;9.57;;;;;;;;;;5067376;28;24472;-52
2022/03/09 08:29:08;;;;;;;11.53;9.77;;;;;;;;;;5068008;28;24742;-52
2022/03/09 08:31:33;;;;;;;10.75;9.10;;;;;;;;;;5067778;28;24474;-52
2022/03/09 08:33:59;;;;;;;12.50;9.23;;;;;;;;;;5067991;28;24425;-52
2022/03/09 08:36:24;;;;;;;11.50;9.10;;;;;;;;;;5067232;28;24816;-52
2022/03/09 08:38:49;;;;;;;12.65;9.70;;;;;;;;;;5068008;28;24482;-53
2022/03/09 08:41:14;;;;;;;11.90;9.73;;;;;;;;;;5067620;28;24450;-52
2022/03/09 08:43:39;;;;;;;10.20;9.20;;;;;;;;;;5066927;28;24387;-52
2022/03/09 08:46:05;;;;;;;11.15;9.43;;;;;;;;;;5067803;28;24464;-52
2022/03/09 08:48:30;;;;;;;11.18;9.27;;;;;;;;;;5066620;28;24415;-52
2022/03/09 08:50:55;;;;;;;13.43;11.17;;;;;;;;;;5067460;28;24394;-52
2022/03/09 08:53:21;;;;;;;11.13;9.87;;;;;;;;;;5067830;28;24406;-52
2022/03/09 08:55:46;;;;;;;12.47;10.10;;;;;;;;;;5067626;28;24387;-52
2022/03/09 08:58:11;;;;;;;12.03;9.73;;;;;;;;;;5067091;28;24461;-51
2022/03/09 09:00:36;;;;;;;9.70;8.70;;;;;;;;;;5067376;28;24498;-52
2022/03/09 09:03:01;;;;;;;11.97;9.30;;;;;;;;;;5067657;28;24796;-52
2022/03/09 09:05:26;;;;;;;11.00;9.80;;;;;;;;;;5067438;28;24908;-52
2022/03/09 09:07:52;;;;;;;9.80;8.70;;;;;;;;;;5066519;28;24504;-52
2022/03/09 09:10:17;;;;;;;11.50;9.40;;;;;;;;;;5067497;28;24506;-53
2022/03/09 09:12:42;;;;;;;11.23;8.90;;;;;;;;;;5067041;28;24444;-51
2022/03/09 09:15:08;;;;;;;10.47;8.70;;;;;;;;;;5067316;28;24494;-52
2022/03/09 09:17:34;;;;;;;10.88;9.35;;;;;;;;;;5067079;28;24426;-52
2022/03/09 09:19:59;;;;;;;10.87;8.70;;;;;;;;;;5066729;28;24957;-52
2022/03/09 09:22:24;;;;;;;11.03;8.93;;;;;;;;;;5066989;28;24477;-52
2022/03/09 09:24:49;;;;;;;9.98;8.77;;;;;;;;;;5067131;28;24448;-53
2022/03/09 09:27:14;;;;;;;10.70;7.90;;;;;;;;;;5066868;28;24468;-53
2022/03/09 09:29:39;;;;;;;10.18;8.85;;;;;;;;;;5066816;28;24407;-51
2022/03/09 09:32:05;;;;;;;9.45;8.45;;;;;;;;;;5067338;28;24741;-52
2022/03/09 09:34:30;;;;;;;10.75;8.85;;;;;;;;;;5066934;28;24553;-52
2022/03/09 09:36:55;;;;;;;9.85;8.63;;;;;;;;;;5067069;28;24852;-51
2022/03/09 09:39:20;;;;;;;9.30;8.27;;;;;;;;;;5064618;28;24504;-52
2022/03/09 09:41:47;;;;;;;9.50;8.50;;;;;;;;;;5065721;28;24581;-52
2022/03/09 09:44:13;;;;;;;11.63;9.30;;;;;;;;;;5066777;28;24728;-52
2022/03/09 09:46:39;;;;;;;10.02;8.32;;;;;;;;;;5066914;28;24423;-52
2022/03/09 09:49:04;;;;;;;9.40;8.07;;;;;;;;;;5066786;28;24425;-52
2022/03/09 09:51:30;;;;;;;10.60;8.53;;;;;;;;;;5066734;28;24539;-53
2022/03/09 09:53:55;;;;;;;10.40;8.80;;;;;;;;;;5066766;28;24399;-53
2022/03/09 09:56:21;;;;;;;11.60;9.03;;;;;;;;;;5068988;28;24439;-52
2022/03/09 09:58:46;;;;;;;13.93;9.37;;;;;;;;;;5070435;28;24479;-52
2022/03/09 10:01:11;;;;;;;10.80;8.87;;;;;;;;;;5070830;28;24816;-52
2022/03/09 10:03:37;;;;;;;9.57;8.20;;;;;;;;;;5070759;28;24925;-51
2022/03/09 10:06:02;;;;;;;13.60;11.57;;;;;;;;;;5070787;28;24546;-52
2022/03/09 10:08:27;;;;;;;10.53;8.70;;;;;;;;;;5070920;28;24927;-52
2022/03/09 10:10:57;;;;;;;9.03;8.13;;;;;;;;;;5070110;28;24718;-52
2022/03/09 10:13:24;;;;;;;9.52;8.10;;;;;;;;;;5050566;28;24559;-52
2022/03/09 10:16:05;;;;;;;8.82;7.53;;;;;;;;;;5050430;28;24396;-51
2022/03/09 10:18:31;;;;;;;9.35;7.50;;;;;;;;;;5050274;28;24969;-52
2022/03/09 10:21:06;;;;;;;8.60;7.80;;;;;;;;;;5050011;28;24405;-52
2022/03/09 10:23:32;;;;;;;8.10;7.30;;;;;;;;;;5069582;28;24515;-52
2022/03/09 10:26:00;;;;;;;7.68;6.30;;;;;;;;;;5070302;28;24506;-51
2022/03/09 10:28:26;;;;;;;8.63;7.13;;;;;;;;;;5070489;28;24429;-51
2022/03/09 10:30:51;;;;;;;8.80;7.03;;;;;;;;;;5070130;28;24903;-52
2022/03/09 10:33:18;;;;;;;7.17;6.17;;;;;;;;;;5069512;28;24427;-52
2022/03/09 10:35:47;;;;;;;7.80;6.87;;;;;;;;;;5070168;28;24433;-51
2022/03/09 10:38:15;;;;;;;8.20;6.75;;;;;;;;;;5069768;28;25015;-52
2022/03/09 10:40:42;;;;;;;7.80;6.50;;;;;;;;;;5069987;28;24403;-51
2022/03/09 10:43:11;;;;;;;8.32;6.35;;;;;;;;;;5070142;28;24744;-52
2022/03/09 10:45:36;;;;;;;7.53;6.72;;;;;;;;;;5069896;28;24403;-52
2022/03/09 10:48:04;;;;;;;6.50;5.90;;;;;;;;;;5069638;28;24572;-52
2022/03/09 10:50:30;;;;;;;6.70;6.10;;;;;;;;;;5069843;28;24967;-53
2022/03/09 10:53:00;;;;;;;7.00;5.50;;;;;;;;;;5069407;28;24491;-50
2022/03/09 10:55:32;;;;;;;7.65;6.85;;;;;;;;;;5069474;28;24494;-51
2022/03/09 10:58:14;;;;;;;8.27;6.80;;;;;;;;;;5069574;28;24433;-51
2022/03/09 11:00:41;;;;;;;8.43;7.63;;;;;;;;;;5069594;28;24397;-50
2022/03/09 11:03:13;;;;;;;7.22;6.53;;;;;;;;;;5069330;28;24418;-50
2022/03/09 11:05:51;;;;;;;7.68;6.30;;;;;;;;;;5069531;28;24383;-51
2022/03/09 11:08:17;;;;;;;6.78;5.18;;;;;;;;;;5068769;28;24472;-52
2022/03/09 11:10:45;;;;;;;5.80;5.10;;;;;;;;;;5069573;28;24379;-53
2022/03/09 11:13:10;;;;;;;5.32;4.78;;;;;;;;;;5069235;28;24401;-55
2022/03/09 11:15:35;;;;;;;5.30;4.03;;;;;;;;;;5069496;28;24387;-52
2022/03/09 11:18:01;;;;;;;5.40;4.70;;;;;;;;;;5069080;28;24924;-52
2022/03/09 11:20:26;;;;;;;5.80;5.20;;;;;;;;;;5069368;28;24495;-52
2022/03/09 11:22:51;;;;;;;3.90;3.58;;;;;;;;;;5069402;28;24501;-52
2022/03/09 11:25:20;;;;;;;4.35;3.80;;;;;;;;;;5069431;28;24757;-52
2022/03/09 11:27:47;;;;;;;4.30;3.60;;;;;;;;;;5068959;28;24469;-51
2022/03/09 11:30:26;;;;;;;4.70;3.90;;;;;;;;;;5069019;28;24399;-52
2022/03/09 11:32:54;;;;;;;4.40;3.90;;;;;;;;;;5068587;28;24429;-52
2022/03/09 11:35:33;;;;;;;4.80;4.40;;;;;;;;;;5069332;28;24528;-52
2022/03/09 11:37:58;;;;;;;5.47;4.50;;;;;;;;;;5068640;28;24421;-51
2022/03/09 11:40:23;;;;;;;5.75;4.75;;;;;;;;;;5069158;28;24441;-51
2022/03/09 11:42:48;;;;;;;7.38;6.38;;;;;;;;;;5068528;28;24978;-51
2022/03/09 11:45:14;;;;;;;7.17;6.30;;;;;;;;;;5068117;28;24411;-51
2022/03/09 11:47:53;;;;;;;8.37;6.40;;;;;;;;;;5069010;28;24455;-51
2022/03/09 11:50:19;;;;;;;8.48;7.57;;;;;;;;;;5068947;28;24939;-51
2022/03/09 11:52:53;;;;;;;10.43;7.60;;;;;;;;;;5068527;28;24395;-51
2022/03/09 11:55:18;;;;;;;8.25;6.97;;;;;;;;;;5068703;28;24430;-51
2022/03/09 11:57:49;;;;;;;8.90;6.13;;;;;;;;;;5067982;28;24442;-51
2022/03/09 12:00:18;;;;;;;8.60;6.30;;;;;;;;;;5065999;28;24933;-51
2022/03/09 12:02:44;;;;;;;7.50;6.80;;;;;;;;;;5068427;28;24415;-51
2022/03/09 12:05:24;;;;;;;8.70;7.00;;;;;;;;;;5068480;28;24947;-52
2022/03/09 12:07:50;;;;;;;7.20;6.40;;;;;;;;;;5067764;28;24441;-51
2022/03/09 12:10:17;;;;;;;7.60;6.13;;;;;;;;;;5068161;28;24394;-55
2022/03/09 12:13:01;;;;;;;6.90;5.90;;;;;;;;;;5068560;28;24409;-51
2022/03/09 12:15:26;;;;;;;7.85;6.20;;;;;;;;;;5068601;28;24391;-51
2022/03/09 12:17:51;;;;;;;6.37;5.77;;;;;;;;;;5067545;28;24422;-51
2022/03/09 12:20:25;;;;;;;7.10;6.40;;;;;;;;;;5065641;28;24443;-52
2022/03/09 12:22:56;;;;;;;6.60;6.00;;;;;;;;;;5068009;28;24394;-51
2022/03/09 12:25:40;;;;;;;6.43;5.73;;;;;;;;;;5068290;28;24411;-51
2022/03/09 12:28:29;;;;;;;6.60;5.68;;;;;;;;;;5067712;28;24419;-51
2022/03/09 12:30:56;;;;;;;6.05;5.32;;;;;;;;;;5067710;28;24418;-51
2022/03/09 12:33:33;;;;;;;6.80;5.85;;;;;;;;;;5067882;28;25010;-52
2022/03/09 12:36:11;;;;;;;7.00;5.97;;;;;;;;;;5067893;28;24485;-51
2022/03/09 12:38:48;;;;;;;6.20;5.40;;;;;;;;;;5067731;28;24474;-52
2022/03/09 12:41:30;;;;;;;6.22;5.63;;;;;;;;;;5067156;28;24972;-52
2022/03/09 12:43:56;;;;;;;6.28;5.60;;;;;;;;;;5066890;28;24433;-51
2022/03/09 12:46:21;;;;;;;6.60;5.90;;;;;;;;;;5067896;28;24407;-51
2022/03/09 12:48:47;;;;;;;7.30;6.60;;;;;;;;;;5067363;28;24387;-51
2022/03/09 12:51:12;;;;;;;6.10;5.50;;;;;;;;;;5067558;28;24525;-51
2022/03/09 12:53:37;;;;;;;6.40;5.60;;;;;;;;;;5067197;28;24618;-51
2022/03/09 12:56:16;;;;;;;5.30;4.80;;;;;;;;;;5067342;28;24414;-51
2022/03/09 12:58:41;;;;;;;6.60;5.65;;;;;;;;;;5067401;28;24762;-51
2022/03/09 13:01:10;;;;;;;7.03;5.13;;;;;;;;;;5065327;28;24386;-51
2022/03/09 13:03:36;;;;;;;5.93;5.10;;;;;;;;;;5067226;28;24977;-52
2022/03/09 13:06:21;;;;;;;6.32;5.57;;;;;;;;;;5066344;28;24407;-50
2022/03/09 13:08:46;;;;;;;6.10;4.90;;;;;;;;;;5066414;28;24414;-50
2022/03/09 13:11:12;;;;;;;6.53;5.40;;;;;;;;;;5067148;28;24432;-51
2022/03/09 13:13:37;;;;;;;5.82;5.28;;;;;;;;;;5067373;28;24393;-50
2022/03/09 13:16:03;;;;;;;5.80;5.20;;;;;;;;;;5067113;28;24519;-51
2022/03/09 13:18:29;;;;;;;6.13;5.55;;;;;;;;;;5066748;28;24415;-50
2022/03/09 13:20:55;;;;;;;6.45;5.78;;;;;;;;;;5063325;28;24395;-50
2022/03/09 13:23:35;;;;;;;6.00;5.40;;;;;;;;;;5067158;28;24402;-51
2022/03/09 13:26:16;;;;;;;5.88;5.28;;;;;;;;;;5066892;28;24379;-53
2022/03/09 13:28:42;;;;;;;5.95;5.25;;;;;;;;;;5066737;28;24425;-50
2022/03/09 13:31:08;;;;;;;5.80;5.20;;;;;;;;;;5066786;28;24383;-51
2022/03/09 13:33:33;;;;;;;6.77;5.40;;;;;;;;;;5066891;28;24395;-51
2022/03/09 13:35:58;;;;;;;6.70;5.10;;;;;;;;;;5066942;28;24414;-51
2022/03/09 13:38:24;;;;;;;6.23;5.60;;;;;;;;;;5067135;28;24733;-51
2022/03/09 13:40:50;;;;;;;5.30;4.80;;;;;;;;;;5066449;28;25029;-51
2022/03/09 13:43:15;;;;;;;5.72;5.20;;;;;;;;;;5066648;28;24409;-51
2022/03/09 13:45:41;;;;;;;6.00;5.30;;;;;;;;;;5056976;28;24420;-52
2022/03/09 13:48:07;;;;;;;5.53;5.03;;;;;;;;;;5060070;28;25302;-51
2022/03/09 13:50:38;;;;;;;4.93;4.43;;;;;;;;;;5065452;28;24824;-51
2022/03/09 13:53:13;;;;;;;6.05;4.78;;;;;;;;;;5062853;28;25026;-52
2022/03/09 13:55:45;;;;;;;5.32;4.82;;;;;;;;;;5063485;28;24402;-51
2022/03/09 13:58:14;;;;;;;6.18;4.88;;;;;;;;;;5063562;28;24468;-52
2022/03/09 14:00:40;;;;;;;5.60;5.00;;;;;;;;;;5063389;28;24439;-51
2022/03/09 14:03:15;;;;;;;5.13;4.63;;;;;;;;;;5061424;28;24504;-51
2022/03/09 14:05:42;;;;;;;5.15;4.40;;;;;;;;;;5062741;28;24987;-52
2022/03/09 14:08:08;;;;;;;5.70;4.78;;;;;;;;;;5063010;28;24430;-52
2022/03/09 14:10:34;;;;;;;5.00;4.50;;;;;;;;;;5061229;28;24395;-52
2022/03/09 14:13:09;;;;;;;5.60;4.80;;;;;;;;;;5062814;28;24410;-52
2022/03/09 14:15:35;;;;;;;5.20;4.70;;;;;;;;;;5062783;28;24480;-51
2022/03/09 14:18:00;;;;;;;5.07;4.67;;;;;;;;;;5061880;28;25239;-51
2022/03/09 14:20:26;;;;;;;5.10;4.60;;;;;;;;;;5061712;28;24744;-51
2022/03/09 14:22:51;;;;;;;5.90;4.55;;;;;;;;;;5062559;28;24446;-52
2022/03/09 14:25:18;;;;;;;4.57;4.10;;;;;;;;;;5061943;28;24446;-53
2022/03/09 14:27:43;;;;;;;5.28;4.43;;;;;;;;;;5063142;28;24561;-52
2022/03/09 14:30:10;;;;;;;5.40;4.50;;;;;;;;;;5062056;28;24961;-52
2022/03/09 14:32:35;;;;;;;5.50;4.78;;;;;;;;;;5062900;28;24473;-52
2022/03/09 14:35:01;;;;;;;4.90;4.40;;;;;;;;;;5061146;28;24957;-52
2022/03/09 14:37:26;;;;;;;5.72;5.22;;;;;;;;;;5063581;28;24407;-52